createdAt,value
2023-02-16T00:01:24.885Z,5.32
2023-02-16T00:03:56.108Z,7.03
2023-02-16T00:06:27.275Z,6.22
2023-02-16T00:09:00.149Z,6.30
2023-02-16T00:11:46.874Z,7.82
2023-02-16T00:14:17.806Z,6.95
2023-02-16T00:16:47.879Z,7.53
2023-02-16T00:19:24.136Z,6.20
2023-02-16T00:21:56.330Z,8.05
2023-02-16T00:24:30.586Z,8.07
2023-02-16T00:27:02.471Z,6.25
2023-02-16T00:29:36.928Z,7.78
2023-02-16T00:32:08.763Z,6.75
2023-02-16T00:34:41.031Z,6.15
2023-02-16T00:37:13.156Z,5.90
2023-02-16T00:39:47.275Z,5.75
2023-02-16T00:42:22.411Z,4.68
2023-02-16T00:44:55.532Z,4.47
2023-02-16T00:47:29.809Z,7.18
2023-02-16T00:50:00.447Z,6.78
2023-02-16T00:52:36.624Z,7.18
2023-02-16T00:55:12.702Z,5.72
2023-02-16T00:57:46.036Z,6.38
2023-02-16T01:00:19.734Z,7.15
2023-02-16T01:02:52.114Z,5.50
2023-02-16T01:05:23.896Z,7.60
2023-02-16T01:08:07.111Z,11.18
2023-02-16T01:10:53.850Z,11.15
2023-02-16T01:13:24.762Z,7.80
2023-02-16T01:15:55.234Z,7.90
2023-02-16T01:18:25.397Z,7.15
2023-02-16T01:20:55.394Z,7.68
2023-02-16T01:23:25.421Z,8.27
2023-02-16T01:25:58.107Z,7.25
2023-02-16T01:28:29.540Z,6.43
2023-02-16T01:30:59.953Z,9.15
2023-02-16T01:33:30.074Z,8.43
2023-02-16T01:36:03.639Z,10.38
2023-02-16T01:38:33.629Z,8.30
2023-02-16T01:41:25.180Z,10.18
2023-02-16T01:44:01.017Z,7.97
2023-02-16T01:46:39.668Z,9.65
2023-02-16T01:49:15.924Z,7.80
2023-02-16T01:52:10.046Z,7.70
2023-02-16T01:54:46.472Z,9.10
2023-02-16T01:57:29.491Z,10.07
2023-02-16T02:00:10.684Z,8.05
2023-02-16T02:02:48.192Z,7.25
2023-02-16T02:05:36.519Z,10.50
2023-02-16T02:08:31.039Z,10.55
2023-02-16T02:11:10.812Z,7.65
2023-02-16T02:13:50.108Z,7.40
2023-02-16T02:16:22.509Z,7.70
2023-02-16T02:18:53.000Z,7.43
2023-02-16T02:22:00.122Z,7.60
2023-02-16T02:25:06.480Z,6.93
2023-02-16T02:27:42.102Z,8.80
2023-02-16T02:30:27.153Z,8.02
2023-02-16T02:33:10.052Z,7.00
2023-02-16T02:35:52.645Z,6.85
2023-02-16T02:38:30.777Z,8.95
2023-02-16T02:41:12.358Z,7.07
2023-02-16T02:43:48.991Z,9.05
2023-02-16T02:46:25.166Z,8.35
2023-02-16T02:48:55.833Z,9.30
2023-02-16T02:51:34.040Z,8.15
2023-02-16T02:54:25.310Z,10.00
2023-02-16T02:57:21.641Z,9.85
2023-02-16T03:00:13.958Z,10.30
2023-02-16T03:02:46.144Z,8.02
2023-02-16T03:05:17.267Z,13.30
2023-02-16T03:07:53.589Z,10.35
2023-02-16T03:10:40.036Z,11.35
2023-02-16T03:13:17.685Z,12.68
2023-02-16T03:15:51.765Z,19.58
2023-02-16T03:18:34.390Z,14.15
2023-02-16T03:21:18.954Z,11.55
2023-02-16T03:26:47.981Z,16.60
2023-02-16T03:31:59.028Z,8.43
2023-02-16T03:34:29.900Z,10.05
2023-02-16T03:37:02.389Z,9.23
2023-02-16T03:39:53.981Z,7.93
2023-02-16T03:42:27.047Z,9.38
2023-02-16T03:44:57.177Z,10.50
2023-02-16T03:47:29.930Z,9.38
2023-02-16T03:49:59.950Z,11.15
2023-02-16T03:52:29.812Z,10.73
2023-02-16T03:55:00.607Z,9.57
2023-02-16T03:57:30.548Z,13.77
2023-02-16T04:00:00.845Z,12.93
2023-02-16T04:02:33.421Z,10.88
2023-02-16T04:05:03.516Z,10.00
2023-02-16T04:07:33.405Z,11.07
2023-02-16T04:10:03.314Z,11.90
2023-02-16T04:12:36.601Z,13.80
2023-02-16T04:15:08.318Z,9.73
2023-02-16T04:17:40.889Z,18.13
2023-02-16T04:20:13.742Z,14.27
2023-02-16T04:22:44.402Z,16.73
2023-02-16T04:25:14.940Z,15.57
2023-02-16T04:27:46.199Z,18.55
2023-02-16T04:30:18.632Z,14.38
2023-02-16T04:32:51.230Z,16.23
2023-02-16T04:35:22.459Z,11.38
2023-02-16T04:37:52.424Z,16.15
2023-02-16T04:40:23.406Z,12.25
2023-02-16T04:42:53.340Z,19.55
2023-02-16T04:45:23.498Z,20.65
2023-02-16T04:47:56.045Z,13.63
2023-02-16T04:50:25.933Z,17.88
2023-02-16T04:52:55.909Z,23.38
2023-02-16T04:55:25.803Z,17.80
2023-02-16T04:57:55.646Z,16.17
2023-02-16T05:00:25.850Z,14.82
2023-02-16T05:02:59.359Z,18.48
2023-02-16T05:05:29.561Z,15.88
2023-02-16T05:07:59.379Z,13.75
2023-02-16T05:10:29.250Z,12.90
2023-02-16T05:13:11.580Z,13.88
2023-02-16T05:15:42.202Z,10.85
2023-02-16T05:18:14.693Z,10.25
2023-02-16T05:20:57.099Z,10.95
2023-02-16T05:23:26.926Z,13.13
2023-02-16T05:25:56.860Z,12.55
2023-02-16T05:28:26.915Z,19.67
2023-02-16T05:30:57.132Z,12.35
2023-02-16T05:33:29.824Z,13.50
2023-02-16T05:35:59.883Z,14.40
2023-02-16T05:38:29.980Z,12.93
2023-02-16T05:41:01.924Z,13.43
2023-02-16T05:43:33.810Z,12.43
2023-02-16T05:46:03.713Z,9.55
2023-02-16T05:48:36.273Z,10.18
2023-02-16T05:51:06.756Z,11.57
2023-02-16T05:53:36.614Z,11.40
2023-02-16T05:56:07.534Z,10.27
2023-02-16T05:58:37.599Z,10.15
2023-02-16T06:01:08.242Z,9.82
2023-02-16T06:03:41.343Z,9.40
2023-02-16T06:06:11.677Z,8.60
2023-02-16T06:08:41.744Z,9.52
2023-02-16T06:11:33.013Z,13.57
2023-02-16T06:14:03.473Z,14.55
2023-02-16T06:16:34.251Z,13.63
2023-02-16T06:19:08.104Z,10.80
2023-02-16T06:21:38.890Z,11.63
2023-02-16T06:24:11.283Z,10.77
2023-02-16T06:26:41.563Z,10.18
2023-02-16T06:29:12.083Z,11.75
2023-02-16T06:31:42.349Z,10.75
2023-02-16T06:34:14.882Z,12.05
2023-02-16T06:36:44.821Z,10.52
2023-02-16T06:39:14.992Z,9.20
2023-02-16T06:41:44.837Z,11.85
2023-02-16T06:44:16.805Z,15.82
2023-02-16T06:46:49.461Z,15.88
2023-02-16T06:49:26.079Z,17.13
2023-02-16T06:51:57.729Z,12.48
2023-02-16T06:54:27.671Z,14.80
2023-02-16T06:56:57.763Z,12.65
2023-02-16T06:59:28.077Z,12.80
2023-02-16T07:01:58.247Z,8.93
2023-02-16T07:04:30.913Z,12.00
2023-02-16T07:07:00.824Z,11.75
2023-02-16T07:09:30.896Z,10.45
2023-02-16T07:12:01.170Z,11.13
2023-02-16T07:14:31.097Z,9.13
2023-02-16T07:17:04.409Z,10.70
2023-02-16T07:19:37.093Z,10.20
2023-02-16T07:22:07.434Z,10.45
2023-02-16T07:24:37.323Z,10.90
2023-02-16T07:27:08.807Z,12.68
2023-02-16T07:29:38.803Z,11.30
2023-02-16T07:32:08.884Z,11.68
2023-02-16T07:34:41.822Z,8.43
2023-02-16T07:37:11.657Z,14.32
2023-02-16T07:39:41.592Z,12.52
2023-02-16T07:42:11.454Z,10.52
2023-02-16T07:44:41.450Z,9.85
2023-02-16T07:47:13.514Z,11.38
2023-02-16T07:49:45.961Z,8.48
2023-02-16T07:52:16.033Z,10.55
2023-02-16T07:54:48.039Z,8.65
2023-02-16T07:57:17.908Z,10.65
2023-02-16T07:59:47.923Z,9.23
2023-02-16T08:02:19.922Z,11.60
2023-02-16T08:04:55.048Z,10.43
2023-02-16T08:07:25.596Z,7.57
2023-02-16T08:09:57.732Z,9.43
2023-02-16T08:12:27.620Z,8.95
2023-02-16T08:14:57.593Z,8.55
2023-02-16T08:17:27.629Z,8.02
2023-02-16T08:20:00.447Z,7.85
2023-02-16T08:22:30.834Z,12.60
2023-02-16T08:25:00.860Z,12.98
2023-02-16T08:27:30.891Z,8.13
2023-02-16T08:30:01.229Z,8.30
2023-02-16T08:32:31.846Z,9.32
2023-02-16T08:35:04.904Z,10.20
2023-02-16T08:37:35.303Z,10.75
2023-02-16T08:40:08.591Z,10.45
2023-02-16T08:42:42.806Z,10.65
2023-02-16T08:47:44.877Z,11.65
2023-02-16T08:50:17.475Z,16.77
2023-02-16T08:52:49.050Z,10.35
2023-02-16T08:55:19.283Z,11.77
2023-02-16T08:57:49.175Z,8.27
2023-02-16T09:00:32.651Z,12.90
2023-02-16T09:03:04.502Z,11.65
2023-02-16T09:05:37.206Z,11.90
2023-02-16T09:08:07.684Z,13.00
2023-02-16T09:10:37.646Z,9.88
2023-02-16T09:13:10.739Z,14.30
2023-02-16T09:15:42.132Z,10.35
2023-02-16T09:18:12.699Z,9.98
2023-02-16T09:20:47.176Z,11.38
2023-02-16T09:25:47.293Z,7.63
2023-02-16T09:28:17.574Z,8.23
2023-02-16T09:30:47.673Z,7.05
2023-02-16T09:33:18.166Z,7.80
2023-02-16T09:35:50.869Z,6.97
2023-02-16T09:38:21.568Z,12.50
2023-02-16T09:41:00.401Z,9.73
2023-02-16T09:43:48.732Z,7.70
2023-02-16T09:46:23.426Z,9.43
2023-02-16T09:48:54.784Z,8.30
2023-02-16T09:51:34.661Z,9.70
2023-02-16T09:54:16.262Z,7.60
2023-02-16T09:56:52.307Z,7.40
2023-02-16T09:59:38.834Z,7.93
2023-02-16T10:02:35.623Z,7.82
2023-02-16T10:05:17.538Z,8.77
2023-02-16T10:08:02.071Z,10.13
2023-02-16T10:13:19.225Z,7.45
2023-02-16T10:15:53.874Z,6.97
2023-02-16T10:18:30.654Z,9.32
2023-02-16T10:21:05.249Z,8.50
2023-02-16T10:23:48.846Z,8.05
2023-02-16T10:26:26.174Z,7.53
2023-02-16T10:28:58.878Z,8.27
2023-02-16T10:31:37.126Z,8.20
2023-02-16T10:34:25.194Z,8.10
2023-02-16T10:37:26.441Z,6.70
2023-02-16T10:40:15.401Z,6.63
2023-02-16T10:42:51.694Z,7.22
2023-02-16T10:45:27.537Z,8.65
2023-02-16T10:47:57.627Z,13.50
2023-02-16T10:50:31.289Z,7.57
2023-02-16T10:53:04.426Z,16.23
2023-02-16T10:55:37.352Z,8.45
2023-02-16T10:58:07.660Z,9.98
2023-02-16T11:00:49.254Z,7.68
2023-02-16T11:03:20.430Z,10.20
2023-02-16T11:05:50.441Z,7.60
2023-02-16T11:08:21.594Z,8.05
2023-02-16T11:10:57.098Z,7.60
2023-02-16T11:13:32.761Z,6.45
2023-02-16T11:16:08.615Z,7.20
2023-02-16T11:18:42.172Z,8.27
2023-02-16T11:21:14.198Z,6.93
2023-02-16T11:23:47.336Z,7.00
2023-02-16T11:26:29.046Z,8.60
2023-02-16T11:29:10.474Z,7.43
2023-02-16T11:31:43.479Z,9.27
2023-02-16T11:34:27.786Z,7.85
2023-02-16T11:37:06.379Z,7.50
2023-02-16T11:39:40.864Z,7.80
2023-02-16T11:42:26.971Z,7.15
2023-02-16T11:44:58.867Z,7.60
2023-02-16T11:47:31.508Z,7.00
2023-02-16T11:50:23.290Z,7.47
2023-02-16T11:52:55.699Z,8.00
2023-02-16T11:55:32.798Z,10.63
2023-02-16T11:58:22.839Z,6.82
2023-02-16T12:01:07.521Z,9.10
2023-02-16T12:04:10.509Z,10.60
2023-02-16T12:06:54.572Z,9.10
2023-02-16T12:09:34.901Z,10.73
2023-02-16T12:12:13.507Z,9.52
2023-02-16T12:14:57.117Z,6.05
2023-02-16T12:17:39.593Z,6.43
2023-02-16T12:20:25.093Z,8.98
2023-02-16T12:23:02.688Z,6.45
2023-02-16T12:25:39.675Z,12.13
2023-02-16T12:28:20.409Z,10.30
2023-02-16T12:31:05.778Z,10.68
2023-02-16T12:33:50.926Z,6.75
2023-02-16T12:36:35.922Z,8.07
2023-02-16T12:39:20.046Z,6.27
2023-02-16T12:42:01.367Z,6.30
2023-02-16T12:44:37.475Z,8.45
2023-02-16T12:47:15.677Z,5.25
2023-02-16T12:49:54.080Z,8.68
2023-02-16T12:52:36.491Z,7.10
2023-02-16T12:55:22.080Z,7.03
2023-02-16T12:58:00.232Z,7.28
2023-02-16T13:00:52.448Z,7.28
2023-02-16T13:03:37.992Z,5.97
2023-02-16T13:06:17.560Z,9.57
2023-02-16T13:08:52.029Z,7.95
2023-02-16T13:11:28.469Z,6.05
2023-02-16T13:14:04.542Z,9.43
2023-02-16T13:16:45.641Z,13.90
2023-02-16T13:19:19.404Z,8.75
2023-02-16T13:22:21.661Z,8.68
2023-02-16T13:25:05.261Z,7.20
2023-02-16T13:27:45.840Z,5.73
2023-02-16T13:30:42.086Z,6.47
2023-02-16T13:33:39.374Z,6.82
2023-02-16T13:36:36.111Z,6.82
2023-02-16T13:39:28.793Z,8.95
2023-02-16T13:42:36.451Z,10.35
2023-02-16T13:45:15.442Z,6.88
2023-02-16T13:47:45.846Z,7.90
2023-02-16T13:50:32.507Z,7.28
2023-02-16T13:53:21.455Z,8.68
2023-02-16T13:55:52.822Z,8.27
2023-02-16T13:58:36.077Z,7.60
2023-02-16T14:01:39.030Z,6.80
2023-02-16T14:04:15.003Z,7.22
2023-02-16T14:06:45.464Z,5.18
2023-02-16T14:09:48.383Z,5.85
2023-02-16T14:12:25.753Z,5.80
2023-02-16T14:15:03.779Z,6.75
2023-02-16T14:17:37.111Z,6.05
2023-02-16T14:20:29.013Z,5.30
2023-02-16T14:23:01.250Z,6.10
2023-02-16T14:25:42.627Z,5.28
2023-02-16T14:28:42.586Z,5.32
2023-02-16T14:31:17.877Z,4.32
2023-02-16T14:33:58.527Z,6.65
2023-02-16T14:36:29.401Z,4.72
2023-02-16T14:39:01.690Z,4.35
2023-02-16T14:41:36.980Z,5.95
2023-02-16T14:44:30.554Z,5.30
2023-02-16T14:47:08.823Z,5.35
2023-02-16T14:50:05.357Z,4.82
2023-02-16T14:52:54.254Z,6.28
2023-02-16T14:55:44.073Z,7.63
2023-02-16T14:58:28.809Z,5.30
2023-02-16T15:01:07.439Z,4.45
2023-02-16T15:03:46.268Z,5.63
2023-02-16T15:06:22.741Z,8.05
2023-02-16T15:08:58.569Z,6.97
2023-02-16T15:11:34.136Z,6.13
2023-02-16T15:14:15.644Z,5.40
2023-02-16T15:16:46.913Z,6.20
2023-02-16T15:19:23.955Z,7.40
2023-02-16T15:22:12.643Z,9.40
2023-02-16T15:24:44.609Z,6.13
2023-02-16T15:27:24.350Z,6.18
2023-02-16T15:30:10.551Z,6.47
2023-02-16T15:32:41.294Z,6.20
2023-02-16T15:35:16.360Z,6.32
2023-02-16T15:37:46.331Z,6.88
2023-02-16T15:40:25.382Z,7.68
2023-02-16T15:42:58.782Z,5.63
2023-02-16T15:45:38.033Z,6.70
2023-02-16T15:48:30.594Z,5.75
2023-02-16T15:51:08.423Z,7.45
2023-02-16T15:53:44.437Z,7.30
2023-02-16T15:56:31.191Z,5.72
2023-02-16T15:59:04.082Z,6.47
2023-02-16T16:01:38.351Z,6.82
2023-02-16T16:06:42.781Z,7.13
2023-02-16T16:09:23.419Z,8.50
2023-02-16T16:11:54.518Z,6.72
2023-02-16T16:14:26.427Z,5.38
2023-02-16T16:16:59.954Z,6.45
2023-02-16T16:19:39.206Z,5.53
2023-02-16T16:22:31.977Z,5.28
2023-02-16T16:25:02.609Z,7.85
2023-02-16T16:27:36.204Z,8.80
2023-02-16T16:30:27.112Z,7.22
2023-02-16T16:33:09.147Z,8.45
2023-02-16T16:35:42.231Z,7.32
2023-02-16T16:38:25.945Z,7.47
2023-02-16T16:40:57.976Z,7.00
2023-02-16T16:43:31.017Z,7.57
2023-02-16T16:46:16.302Z,9.43
2023-02-16T16:48:51.644Z,10.20
2023-02-16T16:51:24.319Z,7.97
2023-02-16T16:53:57.437Z,7.65
2023-02-16T16:56:27.803Z,8.38
2023-02-16T16:59:00.088Z,8.32
2023-02-16T17:01:31.839Z,9.52
2023-02-16T17:04:04.894Z,6.47
2023-02-16T17:06:34.801Z,8.73
2023-02-16T17:09:06.932Z,5.75
2023-02-16T17:11:38.631Z,6.70
2023-02-16T17:14:12.466Z,6.47
2023-02-16T17:16:45.769Z,6.03
2023-02-16T17:19:20.606Z,4.30
2023-02-16T17:21:51.886Z,5.57
2023-02-16T17:24:22.161Z,5.15
2023-02-16T17:26:52.538Z,6.70
2023-02-16T17:29:22.727Z,6.68
2023-02-16T17:31:52.861Z,5.93
2023-02-16T17:34:29.544Z,4.90
2023-02-16T17:36:59.872Z,6.43
2023-02-16T17:39:29.874Z,5.43
2023-02-16T17:42:00.355Z,7.50
2023-02-16T17:44:30.574Z,5.15
2023-02-16T17:47:00.874Z,5.78
2023-02-16T17:49:33.855Z,7.10
2023-02-16T17:52:04.100Z,7.47
2023-02-16T17:54:34.050Z,8.45
2023-02-16T17:57:04.102Z,7.25
2023-02-16T17:59:34.466Z,7.95
2023-02-16T18:02:04.436Z,10.27
2023-02-16T18:04:41.146Z,6.68
2023-02-16T18:07:15.077Z,9.70
2023-02-16T18:09:45.343Z,10.68
2023-02-16T18:12:15.709Z,10.32
2023-02-16T18:14:46.139Z,6.90
2023-02-16T18:17:16.601Z,7.63
2023-02-16T18:19:49.196Z,9.15
2023-02-16T18:22:19.267Z,12.00
2023-02-16T18:24:49.744Z,7.80
2023-02-16T18:27:21.567Z,6.65
2023-02-16T18:29:51.986Z,6.63
2023-02-16T18:32:21.932Z,6.45
2023-02-16T18:34:54.668Z,8.85
2023-02-16T18:37:24.712Z,9.75
2023-02-16T18:39:54.680Z,8.30
2023-02-16T18:42:24.862Z,11.82
2023-02-16T18:44:54.778Z,8.10
2023-02-16T18:47:26.151Z,7.45
2023-02-16T18:49:59.073Z,6.65
2023-02-16T18:52:29.228Z,9.88
2023-02-16T18:54:59.125Z,7.88
2023-02-16T18:57:29.083Z,7.25
2023-02-16T18:59:59.247Z,6.85
2023-02-16T19:02:29.251Z,7.15
2023-02-16T19:05:02.760Z,6.75
2023-02-16T19:07:32.784Z,6.68
2023-02-16T19:10:03.417Z,6.35
2023-02-16T19:12:33.333Z,7.20
2023-02-16T19:15:03.485Z,5.30
2023-02-16T19:17:38.661Z,6.85
2023-02-16T19:20:18.319Z,6.22
2023-02-16T19:22:48.618Z,6.53
2023-02-16T19:25:18.974Z,5.90
2023-02-16T19:27:49.565Z,7.03
2023-02-16T19:30:21.706Z,8.30
2023-02-16T19:32:52.378Z,8.45
2023-02-16T19:35:25.013Z,7.03
2023-02-16T19:37:55.912Z,7.57
2023-02-16T19:40:27.121Z,7.57
2023-02-16T19:42:57.733Z,13.45
2023-02-16T19:45:28.116Z,9.38
2023-02-16T19:47:58.112Z,7.00
2023-02-16T19:50:30.964Z,7.13
2023-02-16T19:53:01.051Z,5.05
2023-02-16T19:55:30.939Z,4.75
2023-02-16T19:58:00.859Z,6.75
2023-02-16T20:00:31.165Z,7.03
2023-02-16T20:03:02.194Z,6.55
2023-02-16T20:05:34.946Z,7.35
2023-02-16T20:08:04.879Z,11.68
2023-02-16T20:10:35.138Z,8.57
2023-02-16T20:13:05.601Z,7.47
2023-02-16T20:15:35.578Z,9.02
2023-02-16T20:18:06.184Z,8.93
2023-02-16T20:20:38.683Z,7.10
2023-02-16T20:23:08.900Z,8.80
2023-02-16T20:25:42.037Z,8.15
2023-02-16T20:28:12.757Z,6.55
2023-02-16T20:30:44.796Z,7.90
2023-02-16T20:33:15.215Z,6.82
2023-02-16T20:35:48.083Z,8.05
2023-02-16T20:38:20.966Z,6.78
2023-02-16T20:40:51.572Z,6.88
2023-02-16T20:43:21.962Z,5.53
2023-02-16T20:45:52.100Z,6.75
2023-02-16T20:48:23.364Z,6.10
2023-02-16T20:50:58.979Z,5.32
2023-02-16T20:53:29.618Z,7.13
2023-02-16T20:56:04.715Z,5.90
2023-02-16T20:58:35.091Z,7.40
2023-02-16T21:01:05.219Z,7.18
2023-02-16T21:03:37.231Z,8.13
2023-02-16T21:06:10.073Z,6.95
2023-02-16T21:08:41.725Z,7.05
2023-02-16T21:11:12.001Z,10.25
2023-02-16T21:13:43.556Z,7.63
2023-02-16T21:16:14.425Z,6.93
2023-02-16T21:18:45.412Z,9.55
2023-02-16T21:21:18.149Z,7.43
2023-02-16T21:23:50.114Z,8.30
2023-02-16T21:26:22.509Z,8.40
2023-02-16T21:28:52.926Z,10.40
2023-02-16T21:31:27.054Z,8.35
2023-02-16T21:36:30.059Z,6.82
2023-02-16T21:39:00.485Z,9.30
2023-02-16T21:41:29.541Z,9.48
2023-02-16T21:44:02.793Z,8.68
2023-02-16T21:46:34.627Z,7.68
2023-02-16T21:49:02.346Z,7.32
2023-02-16T21:51:36.829Z,7.65
2023-02-16T21:54:09.400Z,7.93
2023-02-16T21:56:39.262Z,9.00
2023-02-16T21:59:11.309Z,8.13
2023-02-16T22:01:44.689Z,8.63
2023-02-16T22:04:17.268Z,6.30
2023-02-16T22:06:51.703Z,7.95
2023-02-16T22:09:25.779Z,9.60
2023-02-16T22:11:55.933Z,7.80
2023-02-16T22:14:25.842Z,7.15
2023-02-16T22:16:57.733Z,6.60
2023-02-16T22:19:27.668Z,8.45
2023-02-16T22:22:00.266Z,7.72
2023-02-16T22:24:30.470Z,7.88
2023-02-16T22:27:00.796Z,7.38
2023-02-16T22:29:32.644Z,9.82
2023-02-16T22:32:02.642Z,6.57
2023-02-16T22:34:33.061Z,7.18
2023-02-16T22:37:05.657Z,7.22
2023-02-16T22:39:38.943Z,9.35
2023-02-16T22:42:09.301Z,8.30
2023-02-16T22:44:39.555Z,7.13
2023-02-16T22:47:09.646Z,9.30
2023-02-16T22:49:39.584Z,7.88
2023-02-16T22:52:13.414Z,8.05
2023-02-16T22:54:43.573Z,7.70
2023-02-16T22:57:13.809Z,14.25
2023-02-16T22:59:44.154Z,12.20
2023-02-16T23:02:14.455Z,8.50
2023-02-16T23:04:44.796Z,8.48
2023-02-16T23:07:20.705Z,7.43
2023-02-16T23:09:50.749Z,7.60
2023-02-16T23:12:20.997Z,9.05
2023-02-16T23:14:51.210Z,8.73
2023-02-16T23:17:21.268Z,5.57
2023-02-16T23:19:53.186Z,6.80
2023-02-16T23:22:26.655Z,7.20
2023-02-16T23:25:09.520Z,10.15
2023-02-16T23:27:39.602Z,7.78
2023-02-16T23:30:11.477Z,7.70
2023-02-16T23:32:42.833Z,8.35
2023-02-16T23:35:12.749Z,6.93
2023-02-16T23:37:45.854Z,8.48
2023-02-16T23:40:16.405Z,7.28
2023-02-16T23:42:46.979Z,7.10
2023-02-16T23:45:17.122Z,10.27
2023-02-16T23:47:47.178Z,10.40
2023-02-16T23:50:17.461Z,7.95
2023-02-16T23:52:50.249Z,5.85
2023-02-16T23:55:20.623Z,8.05
2023-02-16T23:57:51.401Z,9.40
